Latest Weather Observations for Dove River (PWS)

IDT60801

Issued at 11:41 am EST Friday 23 April 2021 (issued every 10 minutes, with the page automatically refreshed every 10 minutes)

About weather observations | Map of weather stations | Latest weather observations for TAS | Other Formats
Station Details ID: 250113 Name: TAS PARKS WILDLIFE PORTABLE F Lat: -41.60 Lon: 145.97 Height: 50.0 m

Portable automatic weather stations (PAWS) are operated by other organisations, such as Fire and Emergency Services, and are included here by agreement. Portable stations may be deployed to a location for a short period and their location may be subject to change without notice. Wind observations from these stations are provided from heights of either three (3) or ten (10) metres above ground level (AGL).

Data from the previous 72 hours. | See also: Recent months for locations in Tasmania
Date/Time
EST
Temp
°C
App
Temp
°C
Dew
Point
°C
Rel
Hum
%
Delta-T
°C
Wind Press
QNH
hPa
Press
MSL
hPa
Rain since
9am
mm
Dir  Spd
km/h
Gust
km/h
Spd
kts
Gust
kts
23/11:30am 3.5 -6.3 3.4 99 0.0 W 44 50 24 27 1008.6 - 0.6
23/11:20am 3.5 -6.3 3.3 99 0.1 W 44 59 24 32 1008.7 - 0.4
23/11:10am 3.5 -6.3 3.2 98 0.1 W 44 56 24 30 1008.5 - 0.2
23/11:00am 3.5 -7.9 3.1 97 0.2 W 52 57 28 31 1008.1 - 0.2
23/10:50am 3.8 -5.9 3.1 95 0.3 W 43 52 23 28 1008.0 - 0.2
23/10:40am 3.4 -7.2 3.0 97 0.2 W 48 56 26 30 1008.1 - 0.2
23/10:30am 3.1 -9.3 2.7 97 0.2 W 57 63 31 34 1007.9 - 0.2
23/10:20am 3.1 -8.7 2.8 98 0.1 W 54 63 29 34 1007.5 - 0.2
23/10:10am 3.0 -9.8 2.6 97 0.2 WSW 59 69 32 37 1006.8 - 0.2
23/10:00am 2.9 -10.7 2.5 97 0.2 WSW 63 72 34 39 1006.6 - 0.2
23/09:50am 2.9 -9.3 2.7 99 0.1 WSW 56 63 30 34 1006.7 - 0.2
23/09:40am 3.1 -9.7 2.7 97 0.2 WSW 59 65 32 35 1006.7 - 0.2
23/09:30am 2.8 -10.0 2.6 99 0.1 WSW 59 65 32 35 1007.0 - 0.2
23/09:20am 2.8 -9.6 2.7 99 0.0 WSW 57 67 31 36 1006.7 - 0.0
23/09:10am 2.7 -10.1 2.6 99 0.0 W 59 70 32 38 1006.5 - 0.0
23/09:00am 2.7 -10.5 2.4 98 0.1 W 61 69 33 37 1006.3 - 11.4
23/08:50am 2.6 -12.1 2.3 98 0.1 WSW 69 76 37 41 1005.8 - 11.4
23/08:40am 2.4 -11.6 2.3 99 0.0 WSW 65 72 35 39 1005.8 - 11.4
23/08:30am 2.4 -12.0 2.1 98 0.1 WSW 67 72 36 39 1005.5 - 11.4
23/08:20am 2.3 -12.5 2.0 98 0.1 WSW 69 74 37 40 1005.6 - 11.4
23/08:10am 2.2 -12.8 1.8 97 0.2 WSW 70 76 38 41 1004.9 - 11.4
23/08:00am 2.4 -12.6 1.8 96 0.2 WSW 70 80 38 43 1005.1 - 11.4
23/07:50am 2.3 -12.5 2.1 99 0.1 W 69 74 37 40 1004.7 - 11.4
23/07:40am 2.3 -12.1 2.1 99 0.1 WSW 67 72 36 39 1004.6 - 11.0
23/07:30am 2.2 -12.2 1.9 98 0.1 WSW 67 76 36 41 1004.5 - 11.0
23/07:20am 2.1 -12.9 1.8 98 0.1 WSW 70 80 38 43 1004.2 - 11.0
23/07:10am 2.1 -12.9 1.6 96 0.2 WSW 70 76 38 41 1003.9 - 11.0
23/07:00am 2.0 -13.1 1.3 95 0.3 WSW 70 82 38 44 1003.6 - 11.0
23/06:50am 1.9 -13.5 1.4 96 0.2 WSW 72 78 39 42 1003.8 - 11.0
23/06:40am 1.9 -12.2 1.6 98 0.1 WSW 65 70 35 38 1003.9 - 11.0
23/06:30am 2.0 -13.4 1.5 96 0.2 WSW 72 80 39 43 1003.4 - 11.0
23/06:20am 2.0 -14.2 1.6 97 0.2 WSW 76 80 41 43 1003.7 - 11.0
23/06:10am 2.0 -12.4 1.8 99 0.1 W 67 74 36 40 1003.1 - 11.0
23/06:00am 2.0 -12.8 1.8 99 0.1 W 69 78 37 42 1003.9 - 11.0
23/05:50am 2.1 -12.7 2.0 99 0.0 W 69 74 37 40 1003.7 - 11.0
23/05:40am 2.2 -12.8 2.1 99 0.0 W 70 74 38 40 1003.6 - 11.0
23/05:30am 2.1 -12.9 2.0 99 0.0 WSW 70 78 38 42 1003.7 - 11.0
23/05:20am 2.0 -13.8 1.8 99 0.1 W 74 80 40 43 1003.4 - 11.0
23/05:10am 2.2 -11.8 2.2 100 0.0 W 65 76 35 41 1003.7 - 11.0
23/05:00am 2.1 -12.3 2.0 99 0.0 W 67 70 36 38 1003.9 - 11.0
23/04:50am 2.0 -12.4 1.9 99 0.0 W 67 78 36 42 1003.6 - 11.0
23/04:40am 2.0 -13.0 1.7 98 0.1 WSW 70 80 38 43 1003.3 - 11.0
23/04:30am 1.9 -13.1 1.7 99 0.1 WSW 70 78 38 42 1003.1 - 11.0
23/04:20am 2.0 -13.4 1.9 99 0.0 W 72 83 39 45 1003.4 - 10.8
23/04:10am 2.1 -12.3 2.1 100 0.0 W 67 78 36 42 1002.8 - 10.8
23/04:00am 2.2 -10.6 2.2 100 0.0 W 59 67 32 36 1003.5 - 10.4
23/03:50am 2.0 -10.9 1.9 99 0.0 W 59 67 32 36 1003.6 - 10.4
23/03:40am 2.0 -11.6 2.0 100 0.0 W 63 70 34 38 1003.6 - 10.4
23/03:30am 2.1 -11.5 2.0 99 0.0 W 63 70 34 38 1003.7 - 10.2
23/03:20am 2.0 -12.4 1.9 99 0.0 W 67 76 36 41 1003.2 - 10.0
23/03:10am 2.2 -11.8 2.0 99 0.1 W 65 74 35 40 1003.5 - 9.6
23/03:00am 2.1 -11.6 1.9 99 0.1 W 63 67 34 36 1003.3 - 9.6
23/02:50am 2.0 -12.0 1.9 99 0.0 W 65 70 35 38 1003.8 - 9.6
23/02:40am 2.0 -12.8 1.8 99 0.1 W 69 76 37 41 1003.2 - 9.4
23/02:30am 1.8 -12.3 1.4 97 0.2 W 65 72 35 39 1003.4 - 9.4
23/02:20am 2.1 -12.3 1.8 98 0.1 W 67 72 36 39 1003.6 - 9.2
23/02:10am 2.0 -12.1 1.6 97 0.2 W 65 70 35 38 1003.2 - 9.2
23/02:00am 1.9 -13.6 1.2 95 0.3 W 72 80 39 43 1002.6 - 9.2
23/01:50am 2.0 -13.1 1.5 96 0.2 W 70 76 38 41 1003.0 - 9.0
23/01:40am 2.4 -9.1 2.3 99 0.0 W 52 56 28 30 1003.9 - 8.8
23/01:30am 2.6 -12.1 2.3 98 0.1 W 69 80 37 43 1003.7 - 8.4
23/01:20am 2.5 -11.1 2.2 98 0.1 W 63 72 34 39 1003.6 - 8.4
23/01:10am 2.5 -11.9 2.3 99 0.1 W 67 72 36 39 1003.3 - 8.4
23/01:00am 2.4 -12.0 2.2 99 0.1 W 67 74 36 40 1003.5 - 8.4
23/12:50am 2.2 -12.8 2.0 99 0.1 W 70 78 38 42 1003.4 - 8.4
23/12:40am 2.3 -11.7 2.1 99 0.1 W 65 69 35 37 1003.6 - 8.2
23/12:30am 2.4 -10.8 2.4 100 0.0 W 61 72 33 39 1003.5 - 8.0
23/12:20am 2.5 -7.8 2.5 100 0.0 W 46 56 25 30 1004.1 - 7.6
23/12:10am 2.4 -7.4 2.4 100 0.0 W 43 52 23 28 1004.0 - 7.4
23/12:00am 2.5 -9.4 2.4 99 0.0 W 54 57 29 31 1004.1 - 7.4
 
Date/Time
EST
Temp
°C
App
Temp
°C
Dew
Point
°C
Rel
Hum
%
Delta-T
°C
Wind Press
QNH
hPa
Press
MSL
hPa
Rain since
9am
mm
Dir  Spd
km/h
Gust
km/h
Spd
kts
Gust
kts
22/11:50pm 2.5 -7.4 2.5 100 0.0 W 44 59 24 32 1003.8 - 7.4
22/11:40pm 2.7 -8.0 2.6 99 0.0 W 48 59 26 32 1004.4 - 7.4
22/11:30pm 2.6 -9.2 2.6 100 0.0 W 54 65 29 35 1004.0 - 7.4
22/11:20pm 2.7 -8.7 2.6 99 0.0 W 52 59 28 32 1004.1 - 7.2
22/11:10pm 2.7 -9.7 2.4 98 0.1 W 57 67 31 36 1004.2 - 7.2
22/11:00pm 2.7 -10.1 2.5 99 0.1 W 59 67 32 36 1004.1 - 7.2
22/10:50pm 2.6 -10.9 2.6 100 0.0 W 63 70 34 38 1004.0 - 7.2
22/10:40pm 2.6 -11.7 2.6 100 0.0 W 67 82 36 44 1003.7 - 7.2
22/10:30pm 2.9 -9.8 2.9 100 0.0 W 59 72 32 39 1003.5 - 7.2
22/10:20pm 2.8 -7.9 2.8 100 0.0 W 48 59 26 32 1003.9 - 7.0
22/10:10pm 2.8 -7.5 2.8 100 0.0 W 46 57 25 31 1004.2 - 6.8
22/10:00pm 2.7 -6.6 2.7 100 0.0 W 41 44 22 24 1004.1 - 6.8
22/09:50pm 2.7 -8.4 2.6 99 0.0 W 50 54 27 29 1004.1 - 6.6
22/09:40pm 2.6 -8.1 2.4 99 0.1 W 48 56 26 30 1004.1 - 6.6
22/09:30pm 2.6 -9.3 2.3 98 0.1 W 54 61 29 33 1004.0 - 6.6
22/09:20pm 2.5 -8.6 2.4 99 0.0 W 50 54 27 29 1003.9 - 6.6
22/09:10pm 2.6 -9.6 2.4 99 0.1 W 56 63 30 34 1003.8 - 6.6
22/09:00pm 2.7 -10.8 2.6 99 0.0 W 63 70 34 38 1003.8 - 6.6
22/08:50pm 2.9 -8.9 2.9 100 0.0 W 54 61 29 33 1003.6 - 6.6
22/08:40pm 2.9 -7.4 2.9 100 0.0 W 46 54 25 29 1003.8 - 6.4
22/08:30pm 2.8 -9.4 2.7 99 0.0 W 56 61 30 33 1003.7 - 6.4
22/08:20pm 2.8 -10.0 2.5 98 0.1 W 59 69 32 37 1003.2 - 6.4
22/08:10pm 2.9 -9.5 2.7 99 0.1 W 57 63 31 34 1003.0 - 6.4
22/08:00pm 2.8 -9.6 2.6 99 0.1 W 57 63 31 34 1003.0 - 6.4
22/07:50pm 2.7 -9.8 2.3 97 0.2 W 57 61 31 33 1003.1 - 6.4
22/07:40pm 2.7 -10.1 2.4 98 0.1 W 59 67 32 36 1002.9 - 6.4
22/07:30pm 2.7 -9.5 2.4 98 0.1 W 56 67 30 36 1002.8 - 6.4
22/07:20pm 2.7 -9.2 2.3 97 0.2 WSW 54 61 29 33 1002.9 - 6.4
22/07:10pm 2.7 -9.2 2.3 97 0.2 WSW 54 57 29 31 1002.7 - 6.4
22/07:00pm 2.8 -10.8 2.3 96 0.2 WSW 63 70 34 38 1002.6 - 6.4
22/06:50pm 2.9 -9.5 2.8 99 0.0 WSW 57 61 31 33 1002.6 - 6.4
22/06:40pm 3.0 -9.7 2.9 99 0.0 W 59 69 32 37 1002.2 - 6.4
22/06:30pm 3.2 -10.3 3.1 99 0.0 W 63 70 34 38 1002.1 - 6.2
22/06:20pm 3.4 -9.6 3.3 99 0.0 W 61 76 33 41 1001.3 - 6.2
22/06:10pm 3.5 -10.3 3.4 99 0.0 WSW 65 70 35 38 1001.0 - 6.0
22/06:00pm 3.5 -9.9 3.5 100 0.0 WSW 63 70 34 38 1001.3 - 5.8
22/05:50pm 3.5 -10.6 3.5 100 0.0 W 67 78 36 42 1000.8 - 5.6
22/05:40pm 3.5 -11.6 3.4 99 0.0 W 72 74 39 40 1000.5 - 5.2
22/05:30pm 3.4 -12.9 3.3 99 0.0 WSW 78 82 42 44 1000.1 - 5.2
22/05:20pm 3.4 -10.4 3.3 99 0.0 W 65 74 35 40 1000.1 - 5.0
22/05:10pm 3.4 -10.8 3.1 98 0.1 W 67 72 36 39 1000.2 - 5.0
22/05:00pm 3.5 -10.0 3.0 97 0.2 W 63 72 34 39 1000.2 - 4.8
22/04:50pm 3.5 -10.7 2.9 96 0.2 W 67 76 36 41 1000.6 - 4.4
22/04:40pm 3.7 -10.1 3.5 99 0.1 W 65 74 35 40 1000.3 - 4.2
22/04:30pm 3.9 -10.8 3.8 99 0.0 W 70 80 38 43 999.7 - 4.2
22/04:20pm 4.1 -10.5 4.0 99 0.0 W 70 74 38 40 999.6 - 4.2
22/04:10pm 4.1 -10.0 3.9 99 0.1 W 67 72 36 39 1000.0 - 4.0
22/04:00pm 4.3 -10.1 4.0 98 0.1 W 69 74 37 40 999.6 - 4.0
22/03:50pm 4.2 -10.3 3.8 97 0.2 W 69 78 37 42 999.6 - 4.0
22/03:40pm 4.7 -9.6 4.4 98 0.1 W 69 76 37 41 - - 4.0
22/03:30pm 4.4 -9.6 4.4 100 0.0 W 67 83 36 45 999.8 - 4.0
22/03:20pm 4.6 -10.3 4.6 100 0.0 W 72 89 39 48 999.5 - 3.6
22/03:10pm 5.0 -7.7 5.0 100 0.0 W 61 72 33 39 - - 3.6
22/03:00pm 5.5 -5.0 5.5 100 0.0 W 50 57 27 31 1000.0 - 3.4
22/02:50pm 5.4 -4.8 5.4 100 0.0 W 48 56 26 30 1000.0 - 3.2
22/02:40pm 5.1 -4.2 5.1 100 0.0 W 43 52 23 28 1000.1 - 3.0
22/02:30pm 4.9 -4.4 4.9 100 0.0 W 43 52 23 28 1000.0 - 2.8
22/02:20pm 4.7 -4.8 4.7 100 0.0 W 44 54 24 29 1000.2 - 2.6
22/02:10pm 4.7 -6.4 4.7 100 0.0 W 52 61 28 33 - - 2.6
22/02:00pm 5.2 -6.1 5.2 100 0.0 W 54 59 29 32 1000.2 - 2.4
22/01:50pm 5.1 -5.9 5.1 100 0.0 W 52 59 28 32 1000.0 - 2.0
22/01:40pm 5.1 -5.5 5.1 100 0.0 W 50 56 27 30 999.8 - 1.8
22/01:30pm 4.9 -6.5 4.9 100 0.0 W 54 67 29 36 1000.0 - 1.6
22/01:20pm 4.8 -6.2 4.8 100 0.0 W 52 65 28 35 1000.3 - 1.6
22/01:10pm 4.7 -6.0 4.7 100 0.0 W 50 57 27 31 1000.2 - 1.4
22/01:00pm 4.6 -5.0 4.6 100 0.0 W 44 54 24 29 1000.3 - 1.4
22/12:50pm 4.5 -5.8 4.5 100 0.0 W 48 57 26 31 1000.5 - 1.4
22/12:40pm 4.3 -5.3 4.3 100 0.0 W 44 54 24 29 1000.8 - 1.4
22/12:30pm 4.2 -5.4 4.2 100 0.0 W 44 52 24 28 1001.0 - 1.4
22/12:20pm 4.2 -6.6 4.2 100 0.0 W 50 56 27 30 1001.1 - 1.4
22/12:10pm 4.1 -5.0 4.1 100 0.0 W 41 52 22 28 1001.1 - 1.4
22/12:00pm 4.1 -5.4 4.1 100 0.0 W 43 52 23 28 1001.5 - 1.2
22/11:50am 4.1 -7.1 4.1 100 0.0 W 52 59 28 32 1001.4 - 1.0
22/11:40am 4.3 -4.0 4.3 100 0.0 W 37 41 20 22 1001.4 - 1.0
22/11:30am 4.4 -5.2 4.3 99 0.0 W 44 54 24 29 1001.6 - 0.8
22/11:20am 4.2 -3.3 4.2 100 0.0 W 33 44 18 24 1001.6 - 0.6
22/11:10am 3.9 -5.6 3.9 100 0.0 W 43 50 23 27 1001.6 - 0.4
22/11:00am 3.8 -6.3 3.8 100 0.0 W 46 61 25 33 1001.8 - 0.4
22/10:50am 3.7 -6.0 3.7 100 0.0 W 44 56 24 30 1001.6 - 0.4
22/10:40am 3.6 -7.3 3.6 100 0.0 W 50 57 27 31 1001.7 - 0.2
22/10:30am 3.9 -6.6 3.9 100 0.0 W 48 57 26 31 1001.7 - 0.2
22/10:20am 3.7 -5.5 3.7 100 0.0 W 41 56 22 30 1001.8 - 0.2
22/10:10am 3.5 -6.6 3.5 100 0.0 W 46 59 25 32 1002.0 - 0.0
22/10:00am 3.6 -7.3 3.6 100 0.0 W 50 57 27 31 1001.7 - 0.0
22/09:50am 3.6 -7.7 3.6 100 0.0 W 52 57 28 31 1001.8 - 0.0
22/09:40am 3.2 -6.6 3.2 100 0.0 W 44 56 24 30 1002.0 - 0.0
22/09:30am 3.0 -6.9 3.0 100 0.0 W 44 54 24 29 1002.1 - 0.0
22/09:20am 2.8 -6.5 2.8 100 0.0 W 41 50 22 27 1002.2 - 0.0
22/09:10am 2.7 -8.7 2.6 99 0.0 W 52 65 28 35 1002.2 - 0.0
22/09:00am 2.7 -8.4 2.7 100 0.0 W 50 54 27 29 1002.4 - 6.2
22/08:50am 2.7 -10.1 2.7 100 0.0 W 59 70 32 38 1001.9 - 6.2
22/08:40am 3.0 -8.4 3.0 100 0.0 W 52 59 28 32 1001.9 - 6.2
22/08:30am 2.9 -7.7 2.9 100 0.0 W 48 50 26 27 1001.7 - 6.0
22/08:20am 2.9 -8.5 2.9 100 0.0 W 52 56 28 30 1001.8 - 6.0
22/08:10am 2.9 -6.4 2.9 100 0.0 W 41 48 22 26 1002.2 - 6.0
22/08:00am 3.0 -8.4 3.0 100 0.0 W 52 65 28 35 1002.1 - 6.0
22/07:50am 2.8 -8.6 2.8 100 0.0 W 52 65 28 35 1002.0 - 6.0
22/07:40am 2.6 -9.2 2.6 100 0.0 W 54 59 29 32 1001.8 - 6.0
22/07:30am 2.7 -8.7 2.7 100 0.0 W 52 59 28 32 1001.6 - 5.6
22/07:20am 2.8 -7.5 2.8 100 0.0 W 46 52 25 28 1001.7 - 5.4
22/07:10am 2.8 -7.9 2.8 100 0.0 W 48 59 26 32 1001.6 - 5.4
22/07:00am 2.7 -8.4 2.7 100 0.0 W 50 56 27 30 1001.3 - 5.4
22/06:50am 2.8 -8.2 2.8 100 0.0 W 50 61 27 33 1001.6 - 5.4
22/06:40am 2.9 -7.4 2.9 100 0.0 W 46 52 25 28 1001.5 - 5.4
22/06:30am 2.9 -8.1 2.8 99 0.0 W 50 56 27 30 1001.6 - 5.4
22/06:20am 2.9 -7.0 2.9 100 0.0 W 44 50 24 27 1001.6 - 5.4
22/06:10am 2.9 -7.0 2.9 100 0.0 W 44 50 24 27 1001.9 - 5.4
22/06:00am 2.9 -6.0 2.9 100 0.0 W 39 48 21 26 1002.0 - 5.4
22/05:50am 2.8 -5.0 2.8 100 0.0 W 33 41 18 22 1002.2 - 5.4
22/05:40am 2.7 -5.1 2.6 99 0.0 WNW 33 37 18 20 1002.5 - 5.4
22/05:30am 2.4 -5.5 2.4 100 0.0 W 33 39 18 21 1002.5 - 5.4
22/05:20am 2.4 -5.9 2.4 100 0.0 W 35 44 19 24 1002.5 - 5.4
22/05:10am 2.3 -6.0 2.3 100 0.0 W 35 41 19 22 1002.6 - 5.4
22/05:00am 2.4 -6.2 2.4 100 0.0 W 37 41 20 22 1002.5 - 5.4
22/04:50am 2.7 -5.9 2.7 100 0.0 W 37 44 20 24 1002.5 - 5.4
22/04:40am 3.3 -6.9 3.3 100 0.0 W 46 56 25 30 1002.4 - 5.4
22/04:30am 3.8 -6.7 3.7 99 0.0 W 48 54 26 29 1002.0 - 5.4
22/04:20am 4.2 -4.9 4.1 99 0.0 W 41 50 22 27 1002.2 - 5.2
22/04:10am 4.7 -2.2 4.7 100 0.0 W 30 39 16 21 1002.2 - 5.2
22/04:00am 4.8 -4.7 4.8 100 0.0 W 44 52 24 28 1002.4 - 5.0
22/03:50am 4.9 -5.0 4.9 100 0.0 W 46 54 25 29 1002.1 - 4.8
22/03:40am 5.0 -3.2 5.0 100 0.0 WNW 37 41 20 22 1002.2 - 4.6
22/03:30am 5.1 -1.7 5.0 99 0.0 WNW 30 35 16 19 1002.4 - 4.4
22/03:20am 5.0 -1.4 5.0 100 0.0 WNW 28 33 15 18 1002.5 - 4.0
22/03:10am 5.1 -2.1 5.0 99 0.0 WNW 32 35 17 19 1002.5 - 3.8
22/03:00am 5.1 -2.7 5.1 100 0.0 WNW 35 39 19 21 1002.6 - 3.6
22/02:50am 5.0 -3.2 5.0 100 0.0 WNW 37 41 20 22 1002.7 - 3.6
22/02:40am 4.9 -2.5 4.8 99 0.0 WNW 33 41 18 22 1003.0 - 3.4
22/02:30am 4.8 -2.6 4.8 100 0.0 WNW 33 37 18 20 1003.1 - 3.0
22/02:20am 4.7 -3.1 4.7 100 0.0 WNW 35 41 19 22 1003.1 - 2.8
22/02:10am 4.6 -3.3 4.6 100 0.0 WNW 35 41 19 22 1003.4 - 2.8
22/02:00am 4.6 -2.7 4.6 100 0.0 WNW 32 35 17 19 1003.7 - 2.8
22/01:50am 4.5 -2.0 4.5 100 0.0 WNW 28 35 15 19 1003.8 - 2.6
22/01:40am 4.5 -2.4 4.5 100 0.0 WNW 30 39 16 21 1003.8 - 2.6
22/01:30am 4.4 -2.9 4.4 100 0.0 WNW 32 35 17 19 1003.9 - 2.6
22/01:20am 4.4 -2.5 4.4 100 0.0 WNW 30 37 16 20 1004.0 - 2.6
22/01:10am 4.4 -3.5 4.4 100 0.0 WNW 35 41 19 22 1004.0 - 2.6
22/01:00am 4.4 -3.1 4.4 100 0.0 WNW 33 39 18 21 1004.2 - 2.6
22/12:50am 4.4 -3.5 4.3 99 0.0 WNW 35 41 19 22 1004.4 - 2.6
22/12:40am 4.3 -3.6 4.3 100 0.0 WNW 35 44 19 24 1004.3 - 2.4
22/12:30am 4.3 -2.3 4.3 100 0.0 WNW 28 37 15 20 1004.2 - 2.4
22/12:20am 4.2 -2.0 4.2 100 0.0 WNW 26 32 14 17 1004.6 - 2.4
22/12:10am 4.1 -2.1 4.1 100 0.0 WNW 26 32 14 17 1004.7 - 2.2
22/12:00am 4.1 -3.3 4.1 100 0.0 WNW 32 37 17 20 1004.9 - 2.2
 
Date/Time
EST
Temp
°C
App
Temp
°C
Dew
Point
°C
Rel
Hum
%
Delta-T
°C
Wind Press
QNH
hPa
Press
MSL
hPa
Rain since
9am
mm
Dir  Spd
km/h
Gust
km/h
Spd
kts
Gust
kts
21/11:50pm 4.0 -3.0 4.0 100 0.0 WNW 30 39 16 21 1005.1 - 2.2
21/11:40pm 4.0 -3.6 4.0 100 0.0 WNW 33 39 18 21 1005.4 - 2.2
21/11:30pm 4.0 -3.0 3.9 99 0.0 WNW 30 35 16 19 1005.5 - 2.2
21/11:20pm 3.9 -2.8 3.9 100 0.0 WNW 28 30 15 16 1005.7 - 2.2
21/11:10pm 3.9 -4.1 3.9 100 0.0 WNW 35 41 19 22 1005.7 - 2.2
21/11:00pm 3.9 -2.8 3.9 100 0.0 NW 28 35 15 19 1005.9 - 2.0
21/10:50pm 3.9 -3.5 3.9 100 0.0 WNW 32 43 17 23 1005.9 - 2.0
21/10:40pm 3.8 -3.3 3.8 100 0.0 WNW 30 37 16 20 1006.1 - 2.0
21/10:30pm 3.7 -3.8 3.7 100 0.0 WNW 32 37 17 20 1006.2 - 2.0
21/10:20pm 3.7 -3.9 3.7 100 0.0 WNW 33 39 18 21 1006.3 - 2.0
21/10:10pm 3.6 -3.5 3.6 100 0.0 NW 30 33 16 18 1006.4 - 2.0
21/10:00pm 3.5 -3.6 3.5 100 0.0 NW 30 35 16 19 1006.6 - 1.8
21/09:50pm 3.5 -4.2 3.5 100 0.0 NW 33 37 18 20 1006.8 - 1.6
21/09:40pm 3.5 -4.0 3.5 100 0.0 WNW 32 37 17 20 1006.8 - 1.4
21/09:30pm 3.4 -3.7 3.4 100 0.0 WNW 30 37 16 20 1006.9 - 1.2
21/09:20pm 3.4 -3.7 3.4 100 0.0 WNW 30 39 16 21 1007.0 - 1.2
21/09:10pm 3.3 -3.8 3.3 100 0.0 WNW 30 39 16 21 1007.0 - 1.2
21/09:00pm 3.3 -3.5 3.3 100 0.0 WNW 28 33 15 18 1007.1 - 1.2
21/08:50pm 3.2 -4.0 3.2 100 0.0 WNW 30 33 16 18 1007.0 - 1.0
21/08:40pm 3.1 -3.7 3.1 100 0.0 WNW 28 33 15 18 1007.1 - 1.0
21/08:30pm 3.0 -3.8 3.0 100 0.0 WNW 28 33 15 18 1007.2 - 1.0
21/08:20pm 2.9 -2.8 2.9 100 0.0 WNW 22 32 12 17 1007.2 - 1.0
21/08:10pm 2.9 -2.8 2.9 100 0.0 WNW 22 30 12 16 1007.5 - 1.0
21/08:00pm 2.9 -4.3 2.9 100 0.0 WNW 30 33 16 18 1007.4 - 1.0
21/07:50pm 2.9 -3.2 2.9 100 0.0 WNW 24 30 13 16 1007.4 - 0.8
21/07:40pm 2.9 -3.6 2.9 100 0.0 WNW 26 30 14 16 1007.4 - 0.8
21/07:30pm 2.8 -4.1 2.8 100 0.0 WNW 28 32 15 17 1007.5 - 0.8
21/07:20pm 2.8 -4.1 2.8 100 0.0 WNW 28 35 15 19 1007.6 - 0.8
21/07:10pm 2.7 -4.2 2.7 100 0.0 WNW 28 37 15 20 1007.6 - 0.8
21/07:00pm 2.7 -4.9 2.7 100 0.0 WNW 32 37 17 20 1007.6 - 0.8
21/06:50pm 2.6 -5.0 2.6 100 0.0 WNW 32 39 17 21 1007.5 - 0.6
21/06:40pm 2.5 -5.2 2.4 99 0.0 WNW 32 39 17 21 1007.4 - 0.6
21/06:30pm 2.4 -5.9 2.4 100 0.0 WNW 35 43 19 23 1007.4 - 0.6
21/06:20pm 2.4 -5.3 2.4 100 0.0 WNW 32 35 17 19 1007.4 - 0.4
21/06:10pm 2.4 -4.9 2.4 100 0.0 WNW 30 35 16 19 1007.5 - 0.4
21/06:00pm 2.4 -5.3 2.4 100 0.0 WNW 32 35 17 19 1007.5 - 0.4
21/05:50pm 2.3 -5.4 2.3 100 0.0 WNW 32 37 17 20 1007.4 - 0.4
21/05:40pm 2.4 -4.9 2.4 100 0.0 WNW 30 35 16 19 1007.4 - 0.4
21/05:30pm 2.4 -5.3 2.4 100 0.0 WNW 32 41 17 22 1007.6 - 0.4
21/05:20pm 2.4 -4.5 2.4 100 0.0 WNW 28 30 15 16 1007.7 - 0.4
21/05:10pm 2.5 -5.2 2.5 100 0.0 WNW 32 41 17 22 1007.7 - 0.4
21/05:00pm 2.5 -4.4 2.5 100 0.0 WNW 28 32 15 17 1007.8 - 0.4
21/04:50pm 2.5 -4.4 2.4 99 0.0 WNW 28 33 15 18 1007.9 - 0.4
21/04:40pm 2.7 -4.6 2.4 98 0.1 WNW 30 35 16 19 1008.0 - 0.4
21/04:30pm 2.8 -4.5 2.4 97 0.2 WNW 30 35 16 19 1008.1 - 0.4
21/04:20pm 2.8 -4.9 2.3 96 0.2 WNW 32 35 17 19 1008.2 - 0.4
21/04:10pm 3.0 -4.7 2.4 96 0.2 WNW 32 37 17 20 1008.3 - 0.4
21/04:00pm 3.3 -4.5 2.7 96 0.2 W 33 37 18 20 1008.1 - 0.4
21/03:50pm 3.4 -4.2 3.1 98 0.1 WNW 32 39 17 21 1008.3 - 0.4
21/03:40pm 2.7 -5.0 2.4 98 0.1 WNW 32 43 17 23 1008.6 - 0.4
21/03:30pm 2.8 -5.1 2.4 97 0.2 WNW 33 39 18 21 1008.6 - 0.2
21/03:20pm 3.3 -2.8 2.5 94 0.3 WNW 24 32 13 17 1008.7 - 0.2
21/03:10pm 3.5 -3.1 2.3 92 0.5 WNW 26 33 14 18 1008.8 - 0.2
21/03:00pm 3.7 -3.6 2.3 91 0.6 WNW 30 37 16 20 1008.8 - 0.2
21/02:50pm 4.1 -3.1 3.1 93 0.4 WNW 30 37 16 20 1008.7 - 0.2
21/02:40pm 2.9 -4.8 2.2 95 0.3 WNW 32 35 17 19 1008.8 - 0.2
21/02:30pm 2.8 -4.5 2.3 96 0.2 WNW 30 33 16 18 1009.0 - 0.2
21/02:20pm 3.4 -2.7 2.7 95 0.3 WNW 24 32 13 17 1009.1 - 0.0
21/02:10pm 3.5 -3.0 2.9 96 0.2 WNW 26 28 14 15 1009.3 - 0.0
21/02:00pm 3.2 -2.5 2.7 96 0.2 WNW 22 28 12 15 1009.3 - 0.0
21/01:50pm 3.1 -3.4 2.4 95 0.3 WNW 26 30 14 16 1009.5 - 0.0
21/01:40pm 3.6 -2.6 2.3 91 0.5 WNW 24 30 13 16 1009.6 - 0.0
21/01:30pm 3.6 -2.9 2.4 92 0.5 WNW 26 32 14 17 1009.6 - 0.0
21/01:20pm 3.3 -3.0 1.3 87 0.8 WNW 24 30 13 16 1009.5 - 0.0
21/01:10pm 3.6 -2.0 1.2 84 0.9 WNW 20 26 11 14 1009.6 - 0.0
21/01:00pm 3.9 -2.6 0.6 79 1.3 WNW 24 28 13 15 1009.8 - 0.0
21/12:50pm 3.5 -3.2 1.3 85 0.9 WNW 26 32 14 17 1009.7 - 0.0
21/12:40pm 4.8 -1.5 1.7 80 1.2 WNW 24 30 13 16 1009.9 - 0.0
21/12:30pm 3.8 -3.7 1.5 85 0.9 W 30 33 16 18 1010.1 - 0.0
21/12:20pm 3.2 -3.8 1.7 90 0.6 WNW 28 32 15 17 1010.3 - 0.0
21/12:10pm 3.7 -2.9 1.9 88 0.7 WNW 26 33 14 18 1010.5 - 0.0
21/12:00pm 3.0 -3.7 1.7 91 0.5 WNW 26 33 14 18 1010.8 - 0.0
21/11:50am 3.6 -2.3 1.9 89 0.7 WNW 22 28 12 15 1010.9 - 0.0
21/11:40am 3.2 -3.9 1.3 87 0.7 W 28 30 15 16 1010.9 - 0.0
21/11:30am 3.3 -3.0 1.5 88 0.7 W 24 30 13 16 1011.1 - 0.0
21/11:20am 2.8 -3.5 1.4 90 0.5 W 24 28 13 15 1011.3 - 0.0
21/11:10am 2.2 -4.9 1.1 92 0.4 WNW 28 33 15 18 1011.3 - 0.0
21/11:00am 2.4 -5.6 0.7 88 0.6 WNW 32 33 17 18 1011.5 - 0.0
21/10:50am 2.9 -4.4 0.1 82 1.0 WNW 28 35 15 19 1011.4 - 0.0
21/10:40am 2.8 -4.1 -0.1 81 1.1 WNW 26 32 14 17 1011.5 - 0.0
21/10:30am 2.3 -5.8 -0.4 82 1.0 WNW 32 35 17 19 1011.6 - 0.0
21/10:20am 2.8 -4.6 -0.5 79 1.2 WNW 28 35 15 19 1011.6 - 0.0
21/10:10am 2.9 -4.1 -0.5 78 1.2 W 26 30 14 16 1011.6 - 0.0
21/10:00am 3.2 -3.4 -0.5 77 1.4 W 24 30 13 16 1011.8 - 0.0
21/09:50am 3.5 -2.7 -0.6 74 1.5 W 22 28 12 15 1011.9 - 0.0
21/09:40am 3.2 -2.0 -0.1 79 1.2 W 17 22 9 12 1011.9 - 0.0
21/09:30am 2.7 -3.2 -0.6 79 1.2 W 20 26 11 14 1011.8 - 0.0
21/09:20am 2.5 -2.4 -0.2 82 1.0 W 15 19 8 10 1011.9 - 0.0
21/09:10am 1.9 -3.8 -0.5 84 0.9 W 19 24 10 13 1011.8 - 0.0
21/09:00am 1.3 -5.0 -0.7 86 0.7 W 22 26 12 14 1011.9 - 0.8
21/08:50am 1.3 -4.6 -0.8 86 0.7 W 20 24 11 13 1012.0 - 0.8
21/08:40am 1.0 -4.7 -1.1 86 0.7 W 19 26 10 14 1012.1 - 0.8
21/08:30am 0.6 -5.2 -1.3 87 0.7 W 19 26 10 14 1011.9 - 0.8
21/08:20am 0.6 -4.4 -1.0 89 0.6 W 15 20 8 11 1011.9 - 0.8
21/08:10am 0.5 -4.9 -1.2 88 0.6 W 17 19 9 10 1011.9 - 0.8
21/08:00am 0.3 -5.1 -1.4 88 0.6 W 17 20 9 11 1011.6 - 0.8
21/07:50am 0.0 -5.8 -1.6 89 0.6 W 19 22 10 12 1011.6 - 0.8
21/07:40am -0.3 -6.7 -1.9 89 0.5 W 22 26 12 14 1011.5 - 0.8
21/07:30am -0.7 -6.8 -2.2 90 0.5 W 20 22 11 12 1011.6 - 0.8
21/07:20am -1.1 -7.3 -2.9 88 0.5 W 20 20 11 11 1011.5 - 0.8
21/07:10am -1.5 -7.1 -3.1 89 0.5 W 17 19 9 10 1011.5 - 0.8
21/07:00am -1.4 -7.4 -2.9 89 0.4 W 19 20 10 11 1011.5 - 0.8
21/06:50am -1.3 -7.3 -2.8 89 0.4 WSW 19 19 10 10 1011.3 - 0.8
21/06:40am -1.4 -7.0 -2.9 89 0.4 WSW 17 19 9 10 1011.3 - 0.8
21/06:30am -1.7 -6.9 -3.1 90 0.4 WSW 15 17 8 9 1011.5 - 0.8
21/06:20am -1.6 -7.2 -3.3 88 0.5 SW 17 19 9 10 1011.4 - 0.8
21/06:10am -1.5 -7.5 -3.4 87 0.6 SW 19 19 10 10 1011.3 - 0.8
21/06:00am -1.4 -7.5 -3.6 85 0.7 SSW 19 19 10 10 1011.3 - 0.8
21/05:50am -1.5 -7.2 -3.7 85 0.6 SSW 17 19 9 10 1011.4 - 0.8
21/05:40am -1.5 -7.2 -3.8 84 0.7 SSW 17 17 9 9 1011.4 - 0.8
21/05:30am -1.6 -7.7 -3.9 84 0.7 SW 19 19 10 10 1011.4 - 0.8
21/05:20am -1.8 -7.9 -3.9 85 0.6 SW 19 19 10 10 1011.5 - 0.8
21/05:10am -1.7 -7.8 -4.0 84 0.7 SW 19 19 10 10 1011.5 - 0.8
21/05:00am -1.6 -7.7 -4.1 83 0.7 SW 19 19 10 10 1011.4 - 0.8
21/04:50am -1.6 -7.4 -4.2 82 0.8 SW 17 17 9 9 1011.3 - 0.8
21/04:40am -1.5 -6.9 -4.4 81 0.9 SW 15 15 8 8 1011.3 - 0.8
21/04:30am -1.5 -6.5 -4.6 79 0.9 SW 13 15 7 8 1011.2 - 0.8
21/04:20am -1.2 -6.6 -4.7 77 1.1 SW 15 19 8 10 1011.2 - 0.8
21/04:10am -0.9 -6.3 -4.7 75 1.2 SSW 15 19 8 10 1011.2 - 0.8
21/04:00am -1.0 -6.9 -5.2 73 1.3 SSW 17 20 9 11 1011.0 - 0.8
21/03:50am -1.1 -6.2 -4.9 75 1.1 SSW 13 15 7 8 1011.0 - 0.8
21/03:40am -1.1 -6.5 -4.9 75 1.1 SSW 15 17 8 9 1011.0 - 0.8
21/03:30am -1.1 -6.5 -4.3 79 1.0 SSW 15 17 8 9 1011.1 - 0.8
21/03:20am -1.1 -6.9 -4.4 78 1.0 SSW 17 19 9 10 1011.1 - 0.8
21/03:10am -1.1 -7.2 -4.3 79 1.0 SSW 19 20 10 11 1010.9 - 0.8
21/03:00am -1.3 -7.4 -4.3 80 0.9 SSW 19 22 10 12 1010.9 - 0.8
21/02:50am -1.3 -7.0 -4.1 81 0.8 SSW 17 19 9 10 1011.0 - 0.8
21/02:40am -1.4 -7.1 -3.8 84 0.7 S 17 19 9 10 1011.1 - 0.8
21/02:30am -1.1 -7.2 -3.7 82 0.8 SSW 19 19 10 10 1011.2 - 0.8
21/02:20am -1.1 -6.8 -3.6 83 0.8 SSW 17 19 9 10 1011.4 - 0.8
21/02:10am -1.2 -6.9 -3.5 84 0.7 SSW 17 17 9 9 1011.4 - 0.8
21/02:00am -1.2 -7.2 -3.4 85 0.7 SSW 19 20 10 11 1011.5 - 0.8
21/01:50am -1.2 -7.3 -3.5 84 0.7 SSW 19 22 10 12 1011.4 - 0.8
21/01:40am -1.5 -6.8 -3.4 87 0.6 S 15 17 8 9 1011.5 - 0.8
21/01:30am -1.4 -5.5 -3.4 86 0.6 S 9 15 5 8 1011.4 - 0.8
21/01:20am -1.2 -4.0 -3.6 84 0.7 S 2 4 1 2 1011.4 - 0.8
21/01:10am -1.3 -4.9 -3.6 84 0.7 S 6 9 3 5 1011.4 - 0.8
21/01:00am -1.3 -4.5 -3.3 86 0.6 W 4 9 2 5 1011.3 - 0.8
21/12:50am -1.3 -4.9 -3.3 86 0.6 SSW 6 9 3 5 1011.4 - 0.8
21/12:40am -1.1 -6.0 -3.5 84 0.7 S 13 17 7 9 1011.3 - 0.8
21/12:30am -1.0 -7.2 -3.3 84 0.7 S 20 24 11 13 1011.2 - 0.8
21/12:20am -1.1 -8.1 -3.5 84 0.7 S 24 26 13 14 1011.0 - 0.8
21/12:10am -1.4 -7.0 -3.3 87 0.6 S 17 20 9 11 1011.1 - 0.8
21/12:00am -1.0 -5.9 -3.3 84 0.7 S 13 15 7 8 1011.2 - 0.8
 
Date/Time
EST
Temp
°C
App
Temp
°C
Dew
Point
°C
Rel
Hum
%
Delta-T
°C
Wind Press
QNH
hPa
Press
MSL
hPa
Rain since
9am
mm
Dir  Spd
km/h
Gust
km/h
Spd
kts
Gust
kts
20/11:50pm -1.1 -4.9 -3.7 82 0.8 SSW 7 13 4 7 1011.2 - 0.8
20/11:40pm -1.1 -5.2 -3.4 84 0.7 SSW 9 15 5 8 1011.1 - 0.8
20/11:30pm -0.8 -7.1 -3.6 81 0.9 S 20 26 11 14 1010.9 - 0.8
20/11:20pm -0.9 -8.0 -4.0 79 1.0 S 24 26 13 14 1010.8 - 0.8
20/11:10pm -1.0 -7.6 -3.4 84 0.7 S 22 24 12 13 1010.7 - 0.8
20/11:00pm -1.0 -7.2 -3.1 86 0.7 S 20 24 11 13 1010.8 - 0.8
20/10:50pm -0.8 -8.1 -3.1 84 0.7 S 26 30 14 16 1010.8 - 0.8
20/10:40pm -0.7 -8.1 -3.3 82 0.8 S 26 30 14 16 1010.8 - 0.8
20/10:30pm -0.7 -7.7 -3.2 83 0.8 S 24 28 13 15 1010.9 - 0.8
20/10:20pm -0.7 -7.3 -3.6 81 0.9 S 22 32 12 17 1010.7 - 0.8
20/10:10pm -0.9 -7.1 -3.0 86 0.7 S 20 22 11 12 1010.9 - 0.8
20/10:00pm -0.8 -6.8 -3.1 84 0.7 S 19 28 10 15 1010.8 - 0.8
20/09:50pm -0.7 -7.3 -3.5 81 0.9 S 22 24 12 13 1010.6 - 0.8
20/09:40pm -0.7 -6.9 -3.5 81 0.9 S 20 24 11 13 1010.6 - 0.8
20/09:30pm -0.9 -7.0 -3.9 80 0.9 SSW 19 24 10 13 1010.4 - 0.8
20/09:20pm -0.8 -5.8 -3.9 79 1.0 SSW 13 17 7 9 1010.5 - 0.8
20/09:10pm -0.7 -6.0 -3.4 82 0.9 S 15 19 8 10 1010.4 - 0.8
20/09:00pm -0.7 -6.3 -2.9 85 0.7 S 17 22 9 12 1010.2 - 0.8
20/08:50pm -0.6 -6.5 -2.4 88 0.6 S 19 22 10 12 1010.1 - 0.8
20/08:40pm -0.6 -6.5 -2.2 89 0.5 S 19 22 10 12 1009.9 - 0.8
20/08:30pm -0.5 -7.0 -2.2 88 0.6 S 22 30 12 16 1009.9 - 0.8
20/08:20pm -0.4 -7.2 -2.2 88 0.6 SSE 24 35 13 19 1009.7 - 0.8
20/08:10pm -0.4 -8.0 -2.4 86 0.7 S 28 33 15 18 1009.4 - 0.8
20/08:00pm -0.4 -7.6 -2.0 89 0.5 S 26 32 14 17 1009.5 - 0.8
20/07:50pm -0.3 -7.9 -2.2 87 0.6 S 28 33 15 18 1009.1 - 0.8
20/07:40pm -0.3 -7.9 -1.9 89 0.5 S 28 33 15 18 1009.2 - 0.8
20/07:30pm -0.2 -9.1 -1.8 89 0.5 S 35 43 19 23 1009.2 - 0.8
20/07:20pm -0.1 -10.1 -1.8 88 0.6 S 41 44 22 24 1009.0 - 0.8
20/07:10pm -0.1 -9.0 -1.9 88 0.6 S 35 41 19 22 1008.9 - 0.8
20/07:00pm -0.2 -8.5 -1.7 90 0.5 S 32 37 17 20 1008.8 - 0.8
20/06:50pm -0.2 -8.7 -1.8 89 0.5 SSW 33 39 18 21 1008.4 - 0.8
20/06:40pm 0.0 -8.5 -2.1 86 0.7 SSW 33 37 18 20 1008.3 - 0.8
20/06:30pm 0.0 -9.3 -2.0 86 0.7 SSW 37 39 20 21 1008.0 - 0.8
20/06:20pm 0.0 -8.9 -1.9 87 0.7 SSW 35 43 19 23 1007.5 - 0.8
20/06:10pm 0.1 -8.3 -0.8 94 0.3 S 33 35 18 19 1007.6 - 0.8
20/06:00pm 0.2 -9.0 -1.4 89 0.6 S 37 43 20 23 1007.6 - 0.8
20/05:50pm 0.2 -8.7 -1.7 87 0.7 S 35 41 19 22 1007.5 - 0.8
20/05:40pm 0.2 -7.7 -1.6 88 0.6 SSW 30 37 16 20 1007.4 - 0.8
20/05:30pm 0.3 -7.3 -1.8 86 0.7 SSW 28 33 15 18 1007.4 - 0.8
20/05:20pm 0.5 -7.8 -1.8 84 0.8 SSW 32 33 17 18 1007.1 - 0.8
20/05:10pm 0.4 -8.8 -1.5 87 0.7 SSW 37 43 20 23 1007.1 - 0.8
20/05:00pm 0.4 -8.4 -1.3 88 0.6 SSW 35 41 19 22 1007.1 - 0.8
20/04:50pm 0.4 -8.0 -0.8 92 0.4 SSW 33 37 18 20 1007.0 - 0.8
20/04:40pm 0.5 -7.7 -0.8 91 0.5 SSW 32 35 17 19 1006.8 - 0.8
20/04:30pm 0.7 -7.6 0.0 95 0.3 SSW 33 39 18 21 1006.8 - 0.8
20/04:20pm 2.1 -4.7 0.5 89 0.6 SW 26 33 14 18 1006.8 - 0.6
20/04:10pm 2.6 -5.7 0.0 83 1.0 SW 33 39 18 21 1006.2 - 0.6
20/04:00pm 2.8 -4.9 0.1 82 1.0 SW 30 33 16 18 1006.1 - 0.6
20/03:50pm 3.6 -3.3 0.3 79 1.2 SSW 26 30 14 16 1006.0 - 0.6
20/03:40pm 3.4 -4.0 -0.7 74 1.5 S 28 32 15 17 1006.0 - 0.6
20/03:30pm 3.7 -3.1 0.5 79 1.2 S 26 28 14 15 1005.9 - 0.6
20/03:20pm 3.4 -4.3 -0.1 78 1.3 S 30 35 16 19 1005.6 - 0.6
20/03:10pm 4.1 -2.8 0.0 74 1.5 SSW 26 32 14 17 1005.5 - 0.6
20/03:00pm 3.8 -3.5 0.1 77 1.4 S 28 33 15 18 1005.5 - 0.6
20/02:50pm 3.7 -4.2 0.9 82 1.1 S 32 37 17 20 1005.3 - 0.6
20/02:40pm 3.5 -5.0 1.0 84 1.0 S 35 41 19 22 1005.2 - 0.6
20/02:30pm 3.5 -4.3 1.8 89 0.7 S 32 37 17 20 1005.2 - 0.6
20/02:20pm 4.0 -3.8 1.8 85 0.9 SSW 32 41 17 22 1004.8 - 0.6
20/02:10pm 3.1 -4.7 1.5 89 0.6 SSW 32 37 17 20 1004.8 - 0.6
20/02:00pm 2.9 -5.1 1.5 90 0.5 SSW 33 37 18 20 1004.8 - 0.6
20/01:50pm 3.0 -4.5 1.1 87 0.7 S 30 35 16 19 1004.5 - 0.6
20/01:40pm 3.3 -4.1 1.8 90 0.6 S 30 33 16 18 1004.5 - 0.6
20/01:30pm 3.2 -4.6 1.8 90 0.5 SSW 32 37 17 20 1004.2 - 0.6
20/01:20pm 3.1 -3.9 1.7 90 0.5 S 28 33 15 18 1004.2 - 0.6
20/01:10pm 2.9 -4.5 1.9 93 0.4 S 30 33 16 18 1004.1 - 0.6
20/01:00pm 2.7 -4.3 2.1 96 0.2 SSW 28 30 15 16 1004.1 - 0.6
20/12:50pm 2.9 -3.7 1.9 93 0.4 S 26 35 14 19 1004.4 - 0.6
20/12:40pm 3.3 -3.3 2.3 93 0.4 S 26 33 14 18 1004.1 - 0.6
20/12:30pm 3.6 -3.3 2.4 92 0.5 SSW 28 35 15 19 1003.9 - 0.6
20/12:20pm 3.3 -4.4 2.3 93 0.4 SSW 32 37 17 20 1004.0 - 0.6
20/12:10pm 2.9 -4.5 1.9 93 0.4 SSW 30 35 16 19 1004.0 - 0.6
20/12:00pm 2.9 -4.4 2.2 95 0.3 SSW 30 33 16 18 1004.2 - 0.6
20/11:50am 3.2 -3.7 2.6 96 0.2 SSW 28 30 15 16 1004.1 - 0.6

Other formats

Comma delimited format used in spreadsheet applications
http://www.bom.gov.au/fwo/IDT60801/IDT60801.99151.axf

JavaScript Object Notation format (JSON) in row-major order
http://www.bom.gov.au/fwo/IDT60801/IDT60801.99151.json

Data quality

Most of these data are generated automatically and are frequently updated. Quality checks on data are not normally performed. It is possible for incorrect values to appear. Refer to information at About Latest Weather Observations and please check the disclaimer before using these data.